createdAt,value
2018-04-12T00:01:34.364Z,8.10
2018-04-12T00:04:01.817Z,8.30
2018-04-12T00:06:29.298Z,8.40
2018-04-12T00:08:56.766Z,8.30
2018-04-12T00:11:24.985Z,8.30
2018-04-12T00:13:52.462Z,8.30
2018-04-12T00:16:19.919Z,8.30
2018-04-12T00:18:47.396Z,8.20
2018-04-12T00:21:14.881Z,8.20
2018-04-12T00:23:42.342Z,8.20
2018-04-12T00:26:09.814Z,8.20
2018-04-12T00:28:37.286Z,8.20
2018-04-12T00:31:04.752Z,8.20
2018-04-12T00:33:32.220Z,8.20
2018-04-12T00:35:59.681Z,8.20
2018-04-12T00:38:27.149Z,8.20
2018-04-12T00:40:54.636Z,8.10
2018-04-12T00:43:22.108Z,8.10
2018-04-12T00:45:49.573Z,8.20
2018-04-12T00:48:17.053Z,8.10
2018-04-12T00:50:44.500Z,8.10
2018-04-12T00:53:11.993Z,8.00
2018-04-12T00:55:39.544Z,8.00
2018-04-12T00:58:08.518Z,7.90
2018-04-12T01:00:36.002Z,7.90
2018-04-12T01:03:03.464Z,7.90
2018-04-12T01:05:31.725Z,8.00
2018-04-12T01:07:59.955Z,8.00
2018-04-12T01:10:27.440Z,8.00
2018-04-12T01:12:54.929Z,7.90
2018-04-12T01:15:23.156Z,8.00
2018-04-12T01:17:50.616Z,8.00
2018-04-12T01:20:18.097Z,8.10
2018-04-12T01:22:45.564Z,8.00
2018-04-12T01:25:13.821Z,7.90
2018-04-12T01:27:41.293Z,7.80
2018-04-12T01:30:08.772Z,7.90
2018-04-12T01:32:37.003Z,8.10
2018-04-12T01:35:04.474Z,8.10
2018-04-12T01:37:32.724Z,8.20
2018-04-12T01:40:00.248Z,8.20
2018-04-12T01:42:27.728Z,8.20
2018-04-12T01:44:55.189Z,8.20
2018-04-12T01:47:22.649Z,8.20
2018-04-12T01:49:50.148Z,8.30
2018-04-12T01:52:18.381Z,8.30
2018-04-12T01:54:45.842Z,8.40
2018-04-12T01:57:13.329Z,8.40
2018-04-12T01:59:40.834Z,8.40
2018-04-12T02:02:09.049Z,8.10
2018-04-12T02:04:37.281Z,8.00
2018-04-12T02:07:04.778Z,8.00
2018-04-12T02:09:32.238Z,8.10
2018-04-12T02:11:59.733Z,8.20
2018-04-12T02:14:27.208Z,8.20
2018-04-12T02:16:55.652Z,8.20
2018-04-12T02:19:23.912Z,8.10
2018-04-12T02:21:51.372Z,8.10
2018-04-12T02:24:19.592Z,7.90
2018-04-12T02:26:47.069Z,7.90
2018-04-12T02:29:14.537Z,7.80
2018-04-12T02:31:42.012Z,7.80
2018-04-12T02:34:10.981Z,7.80
2018-04-12T02:36:38.472Z,7.80
2018-04-12T02:39:06.706Z,7.80
2018-04-12T02:41:34.160Z,7.80
2018-04-12T02:44:01.646Z,7.80
2018-04-12T02:46:29.210Z,7.70
2018-04-12T02:48:56.769Z,7.70
2018-04-12T02:51:24.326Z,7.60
2018-04-12T02:53:52.555Z,7.50
2018-04-12T02:56:20.012Z,7.50
2018-04-12T02:58:47.501Z,7.50
2018-04-12T03:01:15.729Z,7.60
2018-04-12T03:03:43.375Z,7.60
2018-04-12T03:06:11.613Z,7.70
2018-04-12T03:08:39.080Z,7.70
2018-04-12T03:11:06.641Z,7.70
2018-04-12T03:13:34.104Z,7.80
2018-04-12T03:16:02.332Z,7.80
2018-04-12T03:18:29.812Z,7.80
2018-04-12T03:20:57.285Z,7.80
2018-04-12T03:23:25.513Z,8.00
2018-04-12T03:25:52.998Z,7.90
2018-04-12T03:28:20.477Z,8.00
2018-04-12T03:30:48.724Z,8.00
2018-04-12T03:33:16.196Z,8.00
2018-04-12T03:35:43.668Z,8.00
2018-04-12T03:38:11.262Z,8.00
2018-04-12T03:40:38.689Z,8.00
2018-04-12T03:43:06.919Z,7.90
2018-04-12T03:45:34.397Z,7.90
2018-04-12T03:48:01.881Z,7.90
2018-04-12T03:50:30.188Z,7.90
2018-04-12T03:52:57.604Z,7.90
2018-04-12T03:55:25.829Z,8.10
2018-04-12T03:57:53.316Z,8.10
2018-04-12T04:00:20.793Z,8.10
2018-04-12T04:02:48.249Z,8.10
2018-04-12T04:05:16.505Z,7.90
2018-04-12T04:07:44.101Z,7.90
2018-04-12T04:10:11.593Z,7.90
2018-04-12T04:12:39.090Z,7.90
2018-04-12T04:15:27.333Z,7.90
2018-04-12T04:18:07.498Z,7.80
2018-04-12T04:20:47.700Z,7.90
2018-04-12T04:23:15.174Z,7.90
2018-04-12T04:25:42.628Z,7.80
2018-04-12T04:28:10.098Z,7.80
2018-04-12T04:30:37.578Z,7.80
2018-04-12T04:33:05.814Z,8.00
2018-04-12T04:35:33.306Z,8.00
2018-04-12T04:38:00.770Z,8.20
2018-04-12T04:40:29.019Z,8.30
2018-04-12T04:42:56.484Z,8.20
2018-04-12T04:45:23.954Z,8.20
2018-04-12T04:47:52.252Z,8.10
2018-04-12T04:50:19.725Z,8.10
2018-04-12T04:52:47.201Z,8.00
2018-04-12T04:55:14.672Z,8.00
2018-04-12T04:57:42.164Z,8.20
2018-04-12T05:00:10.417Z,8.30
2018-04-12T05:02:37.911Z,8.30
2018-04-12T05:05:05.377Z,8.20
2018-04-12T05:07:32.858Z,8.20
2018-04-12T05:10:00.320Z,8.10
2018-04-12T05:12:27.782Z,8.20
2018-04-12T05:14:55.268Z,8.30
2018-04-12T05:17:23.500Z,8.40
2018-04-12T05:19:50.984Z,8.40
2018-04-12T05:22:18.449Z,8.50
2018-04-12T05:24:45.899Z,8.60
2018-04-12T05:27:13.384Z,8.80
2018-04-12T05:29:41.682Z,9.00
2018-04-12T05:32:09.142Z,9.00
2018-04-12T05:34:36.630Z,9.10
2018-04-12T05:37:04.087Z,9.20
2018-04-12T05:39:31.569Z,9.20
2018-04-12T05:41:59.802Z,9.20
2018-04-12T05:44:27.253Z,9.20
2018-04-12T05:46:54.744Z,9.20
2018-04-12T05:49:23.717Z,9.40
2018-04-12T05:51:51.177Z,9.40
2018-04-12T05:54:18.652Z,9.60
2018-04-12T05:56:46.116Z,9.90
2018-04-12T05:59:13.615Z,10.00
2018-04-12T06:01:41.103Z,10.40
2018-04-12T06:04:08.568Z,10.50
2018-04-12T06:06:36.033Z,10.70
2018-04-12T06:09:03.509Z,10.80
2018-04-12T06:11:31.763Z,10.50
2018-04-12T06:13:59.225Z,10.50
2018-04-12T06:16:26.705Z,10.50
2018-04-12T06:18:54.957Z,10.20
2018-04-12T06:21:22.482Z,10.20
2018-04-12T06:23:49.908Z,10.20
2018-04-12T06:26:17.374Z,10.10
2018-04-12T06:28:44.848Z,10.10
2018-04-12T06:31:12.321Z,10.10
2018-04-12T06:33:39.785Z,10.10
2018-04-12T06:36:07.280Z,10.10
2018-04-12T06:38:35.617Z,10.30
2018-04-12T06:41:03.112Z,10.30
2018-04-12T06:43:31.353Z,10.50
2018-04-12T06:45:58.832Z,10.50
2018-04-12T06:48:27.082Z,10.60
2018-04-12T06:50:54.546Z,10.60
2018-04-12T06:53:22.005Z,10.70
2018-04-12T06:55:49.497Z,10.70
2018-04-12T06:58:17.028Z,10.70
2018-04-12T07:00:45.292Z,10.80
2018-04-12T07:03:12.753Z,10.80
2018-04-12T07:05:40.212Z,10.90
2018-04-12T07:08:07.714Z,10.90
2018-04-12T07:10:35.188Z,11.00
2018-04-12T07:13:02.678Z,11.20
2018-04-12T07:15:30.166Z,11.30
2018-04-12T07:17:57.640Z,11.50
2018-04-12T07:20:25.138Z,11.60
2018-04-12T07:22:54.117Z,11.80
2018-04-12T07:25:21.613Z,11.80
2018-04-12T07:27:49.863Z,11.70
2018-04-12T07:30:17.337Z,11.70
2018-04-12T07:32:45.573Z,11.40
2018-04-12T07:35:13.053Z,11.40
2018-04-12T07:37:40.517Z,11.40
2018-04-12T07:40:08.000Z,11.40
2018-04-12T07:42:35.478Z,11.50
2018-04-12T07:45:02.940Z,11.70
2018-04-12T07:47:30.433Z,11.80
2018-04-12T07:49:57.897Z,11.90
2018-04-12T07:52:25.362Z,11.70
2018-04-12T07:54:53.608Z,11.70
2018-04-12T07:57:21.127Z,11.70
2018-04-12T07:59:48.621Z,11.70
2018-04-12T08:02:16.099Z,11.70
2018-04-12T08:04:43.581Z,11.60
2018-04-12T08:07:11.808Z,11.50
2018-04-12T08:09:39.304Z,11.50
2018-04-12T08:12:07.524Z,11.70
2018-04-12T08:14:35.008Z,11.70
2018-04-12T08:17:02.513Z,11.90
2018-04-12T08:19:29.980Z,11.90
2018-04-12T08:21:57.445Z,12.00
2018-04-12T08:24:24.920Z,12.00
2018-04-12T08:26:52.392Z,12.00
2018-04-12T08:29:21.381Z,12.10
2018-04-12T08:31:48.847Z,12.10
2018-04-12T08:34:17.853Z,12.20
2018-04-12T08:36:45.361Z,12.20
2018-04-12T08:39:12.821Z,12.20
2018-04-12T08:41:40.285Z,12.20
2018-04-12T08:44:07.796Z,12.10
2018-04-12T08:46:36.032Z,12.00
2018-04-12T08:49:03.512Z,12.00
2018-04-12T08:51:30.982Z,11.90
2018-04-12T08:53:59.221Z,12.00
2018-04-12T08:56:26.731Z,12.00
2018-04-12T08:58:54.197Z,12.00
2018-04-12T09:01:21.679Z,12.10
2018-04-12T09:03:49.148Z,12.10
2018-04-12T09:06:16.621Z,12.10
2018-04-12T09:08:44.122Z,12.10
2018-04-12T09:11:11.594Z,12.10
2018-04-12T09:13:39.067Z,12.10
2018-04-12T09:16:06.557Z,12.10
2018-04-12T09:18:34.799Z,12.20
2018-04-12T09:21:02.272Z,12.20
2018-04-12T09:23:29.753Z,12.30
2018-04-12T09:25:58.002Z,12.40
2018-04-12T09:28:25.517Z,12.40
2018-04-12T09:30:52.991Z,12.50
2018-04-12T09:33:20.470Z,12.70
2018-04-12T09:35:48.800Z,13.10
2018-04-12T09:38:17.012Z,13.20
2018-04-12T09:40:44.487Z,13.20
2018-04-12T09:43:12.743Z,13.80
2018-04-12T09:45:40.220Z,13.70
2018-04-12T09:48:07.689Z,14.30
2018-04-12T09:50:35.169Z,14.80
2018-04-12T09:53:02.637Z,14.80
2018-04-12T09:55:30.124Z,15.00
2018-04-12T09:57:57.620Z,15.40
2018-04-12T10:00:27.644Z,16.00
2018-04-12T10:02:55.884Z,16.00
2018-04-12T10:05:29.056Z,16.00
2018-04-12T10:08:02.341Z,15.90
2018-04-12T10:10:29.829Z,16.40
2018-04-12T10:12:57.337Z,16.80
2018-04-12T10:15:24.902Z,17.30
2018-04-12T10:17:52.370Z,17.50
2018-04-12T10:20:19.865Z,17.80
2018-04-12T10:22:47.321Z,18.20
2018-04-12T10:25:14.796Z,18.50
2018-04-12T10:27:43.032Z,19.40
2018-04-12T10:30:10.511Z,19.40
2018-04-12T10:32:38.021Z,20.40
2018-04-12T10:35:05.491Z,21.20
2018-04-12T10:37:32.968Z,21.10
2018-04-12T10:40:00.464Z,21.10
2018-04-12T10:42:28.696Z,20.70
2018-04-12T10:44:56.177Z,20.70
2018-04-12T10:47:24.986Z,20.20
2018-04-12T10:49:53.765Z,19.60
2018-04-12T10:52:22.541Z,18.80
2018-04-12T10:54:50.073Z,18.50
2018-04-12T10:57:17.540Z,19.20
2018-04-12T10:59:45.797Z,19.70
2018-04-12T11:02:13.252Z,19.60
2018-04-12T11:04:40.742Z,19.50
2018-04-12T11:07:08.209Z,19.10
2018-04-12T11:09:36.445Z,19.00
2018-04-12T11:12:03.931Z,19.00
2018-04-12T11:14:32.185Z,18.00
2018-04-12T11:16:59.650Z,18.00
2018-04-12T11:19:27.140Z,17.90
2018-04-12T11:21:54.605Z,18.00
2018-04-12T11:24:22.128Z,18.30
2018-04-12T11:26:49.577Z,18.50
2018-04-12T11:29:17.073Z,18.90
2018-04-12T11:31:45.281Z,20.20
2018-04-12T11:34:12.804Z,20.20
2018-04-12T11:36:40.293Z,20.50
2018-04-12T11:39:07.761Z,20.40
2018-04-12T11:41:35.248Z,20.40
2018-04-12T11:44:03.481Z,20.30
2018-04-12T11:46:30.961Z,20.30
2018-04-12T11:48:58.488Z,20.30
2018-04-12T11:51:25.926Z,20.00
2018-04-12T11:53:53.381Z,19.40
2018-04-12T11:56:20.866Z,19.00
2018-04-12T11:58:48.324Z,18.90
2018-04-12T12:01:15.832Z,18.80
2018-04-12T12:03:44.053Z,18.60
2018-04-12T12:06:11.517Z,18.60
2018-04-12T12:08:39.004Z,18.70
2018-04-12T12:11:06.461Z,18.80
2018-04-12T12:13:33.937Z,18.70
2018-04-12T12:16:02.183Z,18.80
2018-04-12T12:18:29.648Z,18.80
2018-04-12T12:20:57.129Z,18.90
2018-04-12T12:23:24.605Z,19.20
2018-04-12T12:25:52.072Z,19.50
2018-04-12T12:28:19.561Z,19.70
2018-04-12T12:30:47.020Z,19.80
2018-04-12T12:33:14.512Z,19.80
2018-04-12T12:35:42.744Z,20.40
2018-04-12T12:38:10.209Z,20.40
2018-04-12T12:40:37.699Z,20.90
2018-04-12T12:43:05.923Z,22.20
2018-04-12T12:45:33.414Z,22.20
2018-04-12T12:48:01.674Z,23.60
2018-04-12T12:50:29.149Z,23.50
2018-04-12T12:52:57.377Z,23.60
2018-04-12T12:55:24.840Z,23.60
2018-04-12T12:57:52.337Z,23.60
2018-04-12T13:00:19.804Z,23.90
2018-04-12T13:02:48.059Z,23.50
2018-04-12T13:05:15.528Z,23.50
2018-04-12T13:07:43.837Z,23.30
2018-04-12T13:10:11.337Z,23.20
2018-04-12T13:12:38.800Z,22.70
2018-04-12T13:15:06.264Z,22.20
2018-04-12T13:17:33.749Z,22.00
2018-04-12T13:20:01.221Z,22.30
2018-04-12T13:22:28.709Z,22.30
2018-04-12T13:24:56.203Z,22.60
2018-04-12T13:27:24.445Z,22.70
2018-04-12T13:29:51.929Z,22.70
2018-04-12T13:32:20.173Z,22.40
2018-04-12T13:34:47.641Z,22.40
2018-04-12T13:37:15.137Z,21.90
2018-04-12T13:39:42.601Z,21.40
2018-04-12T13:42:10.069Z,21.20
2018-04-12T13:44:37.615Z,21.30
2018-04-12T13:47:05.037Z,21.20
2018-04-12T13:49:32.530Z,21.20
2018-04-12T13:51:59.989Z,21.50
2018-04-12T13:54:27.454Z,21.30
2018-04-12T13:56:55.229Z,20.80
2018-04-12T13:59:22.692Z,20.40
2018-04-12T14:01:50.166Z,20.10
2018-04-12T14:04:17.645Z,20.20
2018-04-12T14:06:45.880Z,20.30
2018-04-12T14:09:13.356Z,20.20
2018-04-12T14:11:40.824Z,20.30
2018-04-12T14:14:09.154Z,20.10
2018-04-12T14:16:36.648Z,20.10
2018-04-12T14:19:04.121Z,20.10
2018-04-12T14:21:32.349Z,20.20
2018-04-12T14:23:59.830Z,20.20
2018-04-12T14:26:27.296Z,20.40
2018-04-12T14:28:54.804Z,20.40
2018-04-12T14:31:22.276Z,20.30
2018-04-12T14:33:49.751Z,20.30
2018-04-12T14:36:17.284Z,20.30
2018-04-12T14:38:44.703Z,20.20
2018-04-12T14:41:12.933Z,20.00
2018-04-12T14:43:40.395Z,20.00
2018-04-12T14:46:07.890Z,20.10
2018-04-12T14:48:36.128Z,20.10
2018-04-12T14:51:03.612Z,20.10
2018-04-12T14:53:31.107Z,20.40
2018-04-12T14:55:58.569Z,20.40
2018-04-12T14:58:26.057Z,20.00
2018-04-12T15:00:53.520Z,19.90
2018-04-12T15:03:20.990Z,19.70
2018-04-12T15:05:48.461Z,19.90
2018-04-12T15:08:16.702Z,20.10
2018-04-12T15:10:44.165Z,20.10
2018-04-12T15:13:11.653Z,20.10
2018-04-12T15:15:39.882Z,20.20
2018-04-12T15:18:07.373Z,20.20
2018-04-12T15:20:34.833Z,20.30
2018-04-12T15:23:03.069Z,20.50
2018-04-12T15:25:30.560Z,20.50
2018-04-12T15:27:58.825Z,20.90
2018-04-12T15:30:26.310Z,20.90
2018-04-12T15:32:54.605Z,20.90
2018-04-12T15:35:22.075Z,21.00
2018-04-12T15:37:49.563Z,21.00
2018-04-12T15:40:17.029Z,20.90
2018-04-12T15:42:44.498Z,20.70
2018-04-12T15:45:12.749Z,20.20
2018-04-12T15:47:40.990Z,20.10
2018-04-12T15:50:08.452Z,20.10
2018-04-12T15:52:35.961Z,20.10
2018-04-12T15:55:04.220Z,20.20
2018-04-12T15:57:31.738Z,20.10
2018-04-12T15:59:59.214Z,19.90
2018-04-12T16:02:26.676Z,20.00
2018-04-12T16:04:54.157Z,20.00
2018-04-12T16:07:22.393Z,19.90
2018-04-12T16:09:49.903Z,19.90
2018-04-12T16:12:18.172Z,19.80
2018-04-12T16:14:46.404Z,19.60
2018-04-12T16:17:13.885Z,19.70
2018-04-12T16:19:41.368Z,19.80
2018-04-12T16:22:09.600Z,19.70
2018-04-12T16:24:37.102Z,19.70
2018-04-12T16:27:05.332Z,19.70
2018-04-12T16:29:32.794Z,19.70
2018-04-12T16:32:00.285Z,19.70
2018-04-12T16:34:28.527Z,19.80
2018-04-12T16:36:56.008Z,19.80
2018-04-12T16:39:23.531Z,19.90
2018-04-12T16:41:51.014Z,19.80
2018-04-12T16:44:18.565Z,19.80
2018-04-12T16:46:46.047Z,19.80
2018-04-12T16:49:14.276Z,19.80
2018-04-12T16:51:41.762Z,19.80
2018-04-12T16:54:09.243Z,19.70
2018-04-12T16:56:36.720Z,19.70
2018-04-12T16:59:04.226Z,19.60
2018-04-12T17:01:31.693Z,19.60
2018-04-12T17:03:59.157Z,19.60
2018-04-12T17:06:27.412Z,19.50
2018-04-12T17:08:55.646Z,19.50
2018-04-12T17:11:23.123Z,19.40
2018-04-12T17:13:50.597Z,19.40
2018-04-12T17:16:18.069Z,19.30
2018-04-12T17:18:45.548Z,19.20
2018-04-12T17:21:13.789Z,19.20
2018-04-12T17:23:41.274Z,19.10
2018-04-12T17:26:09.504Z,19.20
2018-04-12T17:28:37.633Z,19.20
2018-04-12T17:31:05.112Z,19.00
2018-04-12T17:33:32.578Z,18.90
2018-04-12T17:36:00.058Z,18.80
2018-04-12T17:38:27.552Z,18.70
2018-04-12T17:40:56.333Z,18.60
2018-04-12T17:43:24.564Z,18.50
2018-04-12T17:45:52.059Z,18.50
2018-04-12T17:48:20.300Z,18.20
2018-04-12T17:50:47.776Z,18.20
2018-04-12T17:53:15.264Z,18.00
2018-04-12T17:55:43.494Z,17.40
2018-04-12T17:58:10.975Z,17.40
2018-04-12T18:00:39.244Z,16.90
2018-04-12T18:03:06.705Z,16.90
2018-04-12T18:05:34.936Z,16.60
2018-04-12T18:08:02.698Z,16.60
2018-04-12T18:10:30.195Z,16.50
2018-04-12T18:12:58.441Z,16.30
2018-04-12T18:15:25.905Z,16.30
2018-04-12T18:17:53.392Z,16.20
2018-04-12T18:20:21.644Z,16.10
2018-04-12T18:22:49.100Z,16.10
2018-04-12T18:25:17.385Z,16.10
2018-04-12T18:27:45.708Z,16.00
2018-04-12T18:30:13.185Z,16.00
2018-04-12T18:32:40.646Z,16.00
2018-04-12T18:35:08.148Z,15.90
2018-04-12T18:37:36.389Z,15.60
2018-04-12T18:40:03.881Z,15.50
2018-04-12T18:42:32.120Z,15.40
2018-04-12T18:44:59.613Z,15.40
2018-04-12T18:47:27.856Z,15.70
2018-04-12T18:49:55.337Z,15.70
2018-04-12T18:52:23.593Z,15.90
2018-04-12T18:54:51.060Z,15.90
2018-04-12T18:57:18.576Z,16.00
2018-04-12T18:59:46.061Z,15.90
2018-04-12T19:02:13.534Z,15.60
2018-04-12T19:04:41.838Z,15.50
2018-04-12T19:07:10.084Z,15.50
2018-04-12T19:09:37.556Z,15.50
2018-04-12T19:12:05.793Z,15.20
2018-04-12T19:14:33.283Z,15.20
2018-04-12T19:17:01.525Z,14.70
2018-04-12T19:19:29.004Z,14.70
2018-04-12T19:21:56.500Z,14.50
2018-04-12T19:24:23.964Z,14.20
2018-04-12T19:26:51.469Z,14.10
2018-04-12T19:29:18.937Z,14.20
2018-04-12T19:31:47.172Z,14.10
2018-04-12T19:34:14.648Z,14.10
2018-04-12T19:36:42.124Z,14.00
2018-04-12T19:39:10.362Z,13.90
2018-04-12T19:41:37.846Z,13.90
2018-04-12T19:44:05.355Z,13.80
2018-04-12T19:46:32.817Z,13.60
2018-04-12T19:49:00.289Z,13.50
2018-04-12T19:51:27.784Z,13.40
2018-04-12T19:53:56.028Z,13.40
2018-04-12T19:56:23.582Z,13.40
2018-04-12T19:58:51.045Z,13.50
2018-04-12T20:01:18.500Z,13.60
2018-04-12T20:03:45.981Z,13.50
2018-04-12T20:06:13.829Z,13.30
2018-04-12T20:08:41.292Z,13.20
2018-04-12T20:11:08.801Z,13.20
2018-04-12T20:13:36.269Z,13.20
2018-04-12T20:16:03.762Z,13.00
2018-04-12T20:18:31.232Z,12.90
2018-04-12T20:20:58.695Z,12.80
2018-04-12T20:23:26.946Z,12.60
2018-04-12T20:25:54.422Z,12.60
2018-04-12T20:28:22.648Z,12.40
2018-04-12T20:30:50.129Z,12.40
2018-04-12T20:33:17.601Z,12.40
2018-04-12T20:35:45.117Z,12.30
2018-04-12T20:38:12.581Z,12.40
2018-04-12T20:40:40.050Z,12.40
2018-04-12T20:43:07.537Z,12.40
2018-04-12T20:45:35.799Z,12.40
2018-04-12T20:48:03.265Z,12.30
2018-04-12T20:50:31.512Z,12.50
2018-04-12T20:52:59.005Z,12.50
2018-04-12T20:55:27.262Z,12.40
2018-04-12T20:57:54.721Z,12.40
2018-04-12T21:00:22.184Z,12.30
2018-04-12T21:02:49.704Z,12.20
2018-04-12T21:05:17.133Z,12.00
2018-04-12T21:07:44.612Z,11.90
2018-04-12T21:10:12.074Z,11.90
2018-04-12T21:12:39.545Z,11.80
2018-04-12T21:15:07.065Z,11.70
2018-04-12T21:17:35.260Z,11.80
2018-04-12T21:20:02.733Z,11.80
2018-04-12T21:22:30.217Z,11.90
2018-04-12T21:24:58.449Z,11.80
2018-04-12T21:27:25.938Z,11.80
2018-04-12T21:29:54.168Z,11.70
2018-04-12T21:32:21.640Z,11.70
2018-04-12T21:34:49.125Z,11.60
2018-04-12T21:37:16.630Z,11.60
2018-04-12T21:39:44.121Z,11.60
2018-04-12T21:42:11.682Z,11.50
2018-04-12T21:44:39.147Z,11.50
2018-04-12T21:47:06.640Z,11.50
2018-04-12T21:49:34.125Z,11.50
2018-04-12T21:52:01.601Z,11.50
2018-04-12T21:54:29.065Z,11.50
2018-04-12T21:56:56.552Z,11.50
2018-04-12T21:59:24.045Z,11.50
2018-04-12T22:01:51.510Z,11.40
2018-04-12T22:04:18.974Z,11.30
2018-04-12T22:06:46.445Z,11.30
2018-04-12T22:09:13.901Z,11.40
2018-04-12T22:11:41.489Z,11.50
2018-04-12T22:14:08.982Z,11.50
2018-04-12T22:16:36.445Z,11.40
2018-04-12T22:19:03.949Z,11.40
2018-04-12T22:21:31.420Z,11.40
2018-04-12T22:23:59.645Z,11.60
2018-04-12T22:26:27.131Z,11.60
2018-04-12T22:28:54.596Z,11.70
2018-04-12T22:31:22.106Z,11.80
2018-04-12T22:33:49.616Z,11.80
2018-04-12T22:36:17.077Z,11.70
2018-04-12T22:38:45.325Z,11.40
2018-04-12T22:41:12.801Z,11.40
2018-04-12T22:43:40.264Z,11.20
2018-04-12T22:46:07.753Z,11.10
2018-04-12T22:48:35.216Z,11.10
2018-04-12T22:51:02.680Z,11.20
2018-04-12T22:53:30.177Z,11.20
2018-04-12T22:55:57.660Z,11.10
2018-04-12T22:58:25.884Z,10.80
2018-04-12T23:00:53.369Z,10.70
2018-04-12T23:03:20.833Z,10.60
2018-04-12T23:05:49.096Z,10.40
2018-04-12T23:08:18.071Z,10.30
2018-04-12T23:10:45.540Z,10.20
2018-04-12T23:13:13.060Z,10.20
2018-04-12T23:15:40.519Z,10.10
2018-04-12T23:18:07.980Z,10.00
2018-04-12T23:20:35.470Z,9.90
2018-04-12T23:23:02.933Z,9.90
2018-04-12T23:25:31.792Z,9.60
2018-04-12T23:27:59.254Z,9.60
2018-04-12T23:30:26.732Z,9.50
2018-04-12T23:32:54.234Z,9.40
2018-04-12T23:35:21.694Z,9.40
2018-04-12T23:37:49.162Z,9.40
2018-04-12T23:40:16.653Z,9.40
2018-04-12T23:42:45.630Z,9.30
2018-04-12T23:45:13.120Z,9.30
2018-04-12T23:47:41.352Z,9.20
2018-04-12T23:50:08.818Z,9.10
2018-04-12T23:52:36.313Z,9.10
2018-04-12T23:55:04.549Z,9.10
2018-04-12T23:57:32.014Z,9.00
2018-04-12T23:59:59.488Z,9.00
